sensor_id;sensor_type;location;lat;lon;timestamp;P1;durP1;ratioP1;P2;durP2;ratioP2
13238;SDS011;6686;51.292;4.166;2022-07-31T00:01:49;13.27;;;9.83;;
13238;SDS011;6686;51.292;4.166;2022-07-31T00:04:34;12.70;;;7.77;;
13238;SDS011;6686;51.292;4.166;2022-07-31T00:07:20;8.80;;;7.67;;
13238;SDS011;6686;51.292;4.166;2022-07-31T00:10:07;10.20;;;8.00;;
13238;SDS011;6686;51.292;4.166;2022-07-31T00:12:52;9.40;;;7.93;;
13238;SDS011;6686;51.292;4.166;2022-07-31T00:15:39;9.57;;;8.10;;
13238;SDS011;6686;51.292;4.166;2022-07-31T00:18:25;10.73;;;8.55;;
13238;SDS011;6686;51.292;4.166;2022-07-31T00:21:10;9.50;;;7.73;;
13238;SDS011;6686;51.292;4.166;2022-07-31T00:23:56;8.87;;;7.40;;
13238;SDS011;6686;51.292;4.166;2022-07-31T00:26:42;7.67;;;6.60;;
13238;SDS011;6686;51.292;4.166;2022-07-31T00:29:28;8.70;;;6.73;;
13238;SDS011;6686;51.292;4.166;2022-07-31T00:32:14;7.20;;;5.83;;
13238;SDS011;6686;51.292;4.166;2022-07-31T00:35:00;7.47;;;5.53;;
13238;SDS011;6686;51.292;4.166;2022-07-31T00:37:46;8.30;;;5.77;;
13238;SDS011;6686;51.292;4.166;2022-07-31T00:40:32;9.10;;;6.00;;
13238;SDS011;6686;51.292;4.166;2022-07-31T00:43:18;5.73;;;5.27;;
13238;SDS011;6686;51.292;4.166;2022-07-31T00:46:04;7.37;;;6.30;;
13238;SDS011;6686;51.292;4.166;2022-07-31T00:48:50;6.07;;;5.47;;
13238;SDS011;6686;51.292;4.166;2022-07-31T00:51:37;5.97;;;5.47;;
13238;SDS011;6686;51.292;4.166;2022-07-31T00:54:22;8.83;;;6.40;;
13238;SDS011;6686;51.292;4.166;2022-07-31T00:57:08;6.90;;;5.70;;
13238;SDS011;6686;51.292;4.166;2022-07-31T00:59:54;7.53;;;5.57;;
13238;SDS011;6686;51.292;4.166;2022-07-31T01:02:41;8.33;;;5.60;;
13238;SDS011;6686;51.292;4.166;2022-07-31T01:05:27;8.33;;;6.57;;
13238;SDS011;6686;51.292;4.166;2022-07-31T01:08:12;8.27;;;5.33;;
13238;SDS011;6686;51.292;4.166;2022-07-31T01:11:01;7.47;;;6.17;;
13238;SDS011;6686;51.292;4.166;2022-07-31T01:13:48;7.10;;;5.43;;
13238;SDS011;6686;51.292;4.166;2022-07-31T01:16:37;9.07;;;5.67;;
13238;SDS011;6686;51.292;4.166;2022-07-31T01:19:36;6.27;;;4.83;;
13238;SDS011;6686;51.292;4.166;2022-07-31T01:25:37;7.00;;;4.80;;
13238;SDS011;6686;51.292;4.166;2022-07-31T01:31:38;5.13;;;4.43;;
13238;SDS011;6686;51.292;4.166;2022-07-31T01:34:30;5.27;;;4.20;;
13238;SDS011;6686;51.292;4.166;2022-07-31T01:37:26;6.27;;;4.40;;
13238;SDS011;6686;51.292;4.166;2022-07-31T01:40:10;4.40;;;4.00;;
13238;SDS011;6686;51.292;4.166;2022-07-31T01:43:01;4.53;;;3.73;;
13238;SDS011;6686;51.292;4.166;2022-07-31T01:45:44;5.50;;;4.10;;
13238;SDS011;6686;51.292;4.166;2022-07-31T01:48:32;4.78;;;3.85;;
13238;SDS011;6686;51.292;4.166;2022-07-31T01:51:19;5.67;;;3.97;;
13238;SDS011;6686;51.292;4.166;2022-07-31T01:54:04;4.37;;;3.67;;
13238;SDS011;6686;51.292;4.166;2022-07-31T01:56:50;4.17;;;3.77;;
13238;SDS011;6686;51.292;4.166;2022-07-31T01:59:36;6.23;;;4.03;;
13238;SDS011;6686;51.292;4.166;2022-07-31T02:02:22;4.77;;;3.77;;
13238;SDS011;6686;51.292;4.166;2022-07-31T02:05:08;5.70;;;3.83;;
13238;SDS011;6686;51.292;4.166;2022-07-31T02:07:53;5.07;;;3.90;;
13238;SDS011;6686;51.292;4.166;2022-07-31T02:10:40;4.80;;;3.67;;
13238;SDS011;6686;51.292;4.166;2022-07-31T02:13:26;5.90;;;4.00;;
13238;SDS011;6686;51.292;4.166;2022-07-31T02:16:13;4.90;;;3.80;;
13238;SDS011;6686;51.292;4.166;2022-07-31T02:18:58;4.43;;;4.03;;
13238;SDS011;6686;51.292;4.166;2022-07-31T02:21:44;6.77;;;4.20;;
13238;SDS011;6686;51.292;4.166;2022-07-31T02:24:30;5.37;;;3.93;;
13238;SDS011;6686;51.292;4.166;2022-07-31T02:27:16;5.10;;;4.03;;
13238;SDS011;6686;51.292;4.166;2022-07-31T02:30:02;7.67;;;4.17;;
13238;SDS011;6686;51.292;4.166;2022-07-31T02:32:48;4.13;;;3.73;;
13238;SDS011;6686;51.292;4.166;2022-07-31T02:35:34;4.67;;;3.80;;
13238;SDS011;6686;51.292;4.166;2022-07-31T02:38:21;5.30;;;4.00;;
13238;SDS011;6686;51.292;4.166;2022-07-31T02:41:06;5.03;;;3.83;;
13238;SDS011;6686;51.292;4.166;2022-07-31T02:43:52;6.37;;;4.00;;
13238;SDS011;6686;51.292;4.166;2022-07-31T02:46:38;6.37;;;4.15;;
13238;SDS011;6686;51.292;4.166;2022-07-31T02:49:24;5.53;;;4.00;;
13238;SDS011;6686;51.292;4.166;2022-07-31T02:52:10;4.60;;;3.70;;
13238;SDS011;6686;51.292;4.166;2022-07-31T02:54:59;4.53;;;3.73;;
13238;SDS011;6686;51.292;4.166;2022-07-31T02:57:45;4.83;;;3.70;;
13238;SDS011;6686;51.292;4.166;2022-07-31T03:00:31;5.13;;;3.60;;
13238;SDS011;6686;51.292;4.166;2022-07-31T03:03:17;4.37;;;3.43;;
13238;SDS011;6686;51.292;4.166;2022-07-31T03:06:03;7.00;;;3.73;;
13238;SDS011;6686;51.292;4.166;2022-07-31T03:08:48;5.20;;;3.87;;
13238;SDS011;6686;51.292;4.166;2022-07-31T03:11:35;4.33;;;3.67;;
13238;SDS011;6686;51.292;4.166;2022-07-31T03:14:21;6.43;;;3.77;;
13238;SDS011;6686;51.292;4.166;2022-07-31T03:17:07;5.50;;;4.10;;
13238;SDS011;6686;51.292;4.166;2022-07-31T03:19:52;4.60;;;3.90;;
13238;SDS011;6686;51.292;4.166;2022-07-31T03:22:39;6.03;;;4.00;;
13238;SDS011;6686;51.292;4.166;2022-07-31T03:25:25;5.80;;;3.50;;
13238;SDS011;6686;51.292;4.166;2022-07-31T03:28:10;4.63;;;3.70;;
13238;SDS011;6686;51.292;4.166;2022-07-31T03:30:56;6.35;;;4.22;;
13238;SDS011;6686;51.292;4.166;2022-07-31T03:33:42;4.53;;;3.57;;
13238;SDS011;6686;51.292;4.166;2022-07-31T03:36:28;5.03;;;3.50;;
13238;SDS011;6686;51.292;4.166;2022-07-31T03:39:15;4.50;;;3.93;;
13238;SDS011;6686;51.292;4.166;2022-07-31T03:42:01;4.80;;;3.50;;
13238;SDS011;6686;51.292;4.166;2022-07-31T03:44:47;4.83;;;4.20;;
13238;SDS011;6686;51.292;4.166;2022-07-31T03:47:33;6.00;;;4.07;;
13238;SDS011;6686;51.292;4.166;2022-07-31T03:50:19;4.93;;;4.07;;
13238;SDS011;6686;51.292;4.166;2022-07-31T03:53:05;5.53;;;3.63;;
13238;SDS011;6686;51.292;4.166;2022-07-31T03:55:51;5.20;;;4.00;;
13238;SDS011;6686;51.292;4.166;2022-07-31T03:58:37;4.60;;;3.87;;
13238;SDS011;6686;51.292;4.166;2022-07-31T04:01:23;5.17;;;4.23;;
13238;SDS011;6686;51.292;4.166;2022-07-31T04:04:09;4.23;;;3.83;;
13238;SDS011;6686;51.292;4.166;2022-07-31T04:06:55;5.33;;;3.73;;
13238;SDS011;6686;51.292;4.166;2022-07-31T04:09:40;5.27;;;3.90;;
13238;SDS011;6686;51.292;4.166;2022-07-31T04:12:26;4.97;;;4.30;;
13238;SDS011;6686;51.292;4.166;2022-07-31T04:15:12;5.50;;;4.40;;
13238;SDS011;6686;51.292;4.166;2022-07-31T04:17:58;5.20;;;3.93;;
13238;SDS011;6686;51.292;4.166;2022-07-31T04:20:44;4.50;;;3.80;;
13238;SDS011;6686;51.292;4.166;2022-07-31T04:23:30;6.90;;;4.65;;
13238;SDS011;6686;51.292;4.166;2022-07-31T04:26:16;6.93;;;4.20;;
13238;SDS011;6686;51.292;4.166;2022-07-31T04:29:02;7.40;;;4.67;;
13238;SDS011;6686;51.292;4.166;2022-07-31T04:31:48;4.87;;;4.10;;
13238;SDS011;6686;51.292;4.166;2022-07-31T04:34:34;8.97;;;4.07;;
13238;SDS011;6686;51.292;4.166;2022-07-31T04:37:20;7.43;;;3.90;;
13238;SDS011;6686;51.292;4.166;2022-07-31T04:40:06;5.03;;;3.90;;
13238;SDS011;6686;51.292;4.166;2022-07-31T04:42:53;6.57;;;4.50;;
13238;SDS011;6686;51.292;4.166;2022-07-31T04:45:38;4.77;;;4.00;;
13238;SDS011;6686;51.292;4.166;2022-07-31T04:48:24;6.07;;;4.10;;
13238;SDS011;6686;51.292;4.166;2022-07-31T04:51:17;5.77;;;4.00;;
13238;SDS011;6686;51.292;4.166;2022-07-31T04:54:06;4.90;;;3.80;;
13238;SDS011;6686;51.292;4.166;2022-07-31T04:56:52;4.30;;;3.90;;
13238;SDS011;6686;51.292;4.166;2022-07-31T04:59:37;5.00;;;4.33;;
13238;SDS011;6686;51.292;4.166;2022-07-31T05:02:24;6.07;;;4.27;;
13238;SDS011;6686;51.292;4.166;2022-07-31T05:05:09;7.30;;;4.50;;
13238;SDS011;6686;51.292;4.166;2022-07-31T05:07:55;5.40;;;4.90;;
13238;SDS011;6686;51.292;4.166;2022-07-31T05:10:41;5.53;;;4.27;;
13238;SDS011;6686;51.292;4.166;2022-07-31T05:13:47;4.40;;;3.63;;
13238;SDS011;6686;51.292;4.166;2022-07-31T05:16:33;8.13;;;4.07;;
13238;SDS011;6686;51.292;4.166;2022-07-31T05:19:19;5.53;;;4.23;;
13238;SDS011;6686;51.292;4.166;2022-07-31T05:22:05;6.07;;;4.10;;
13238;SDS011;6686;51.292;4.166;2022-07-31T05:24:51;4.57;;;3.83;;
13238;SDS011;6686;51.292;4.166;2022-07-31T05:27:37;5.73;;;3.87;;
13238;SDS011;6686;51.292;4.166;2022-07-31T05:30:22;6.07;;;3.77;;
13238;SDS011;6686;51.292;4.166;2022-07-31T05:33:08;6.13;;;3.80;;
13238;SDS011;6686;51.292;4.166;2022-07-31T05:35:55;6.60;;;4.10;;
13238;SDS011;6686;51.292;4.166;2022-07-31T05:38:41;5.80;;;4.23;;
13238;SDS011;6686;51.292;4.166;2022-07-31T05:41:26;8.27;;;4.23;;
13238;SDS011;6686;51.292;4.166;2022-07-31T05:44:12;7.43;;;4.20;;
13238;SDS011;6686;51.292;4.166;2022-07-31T05:46:58;6.50;;;4.20;;
13238;SDS011;6686;51.292;4.166;2022-07-31T05:49:44;7.00;;;4.57;;
13238;SDS011;6686;51.292;4.166;2022-07-31T05:52:30;6.97;;;4.40;;
13238;SDS011;6686;51.292;4.166;2022-07-31T05:55:16;10.43;;;4.63;;
13238;SDS011;6686;51.292;4.166;2022-07-31T05:58:02;7.33;;;4.67;;
13238;SDS011;6686;51.292;4.166;2022-07-31T06:00:48;8.17;;;5.00;;
13238;SDS011;6686;51.292;4.166;2022-07-31T06:03:34;6.63;;;4.77;;
13238;SDS011;6686;51.292;4.166;2022-07-31T06:06:20;6.87;;;4.63;;
13238;SDS011;6686;51.292;4.166;2022-07-31T06:09:06;5.83;;;4.87;;
13238;SDS011;6686;51.292;4.166;2022-07-31T06:11:52;5.67;;;5.17;;
13238;SDS011;6686;51.292;4.166;2022-07-31T06:14:38;9.90;;;5.10;;
13238;SDS011;6686;51.292;4.166;2022-07-31T06:17:24;5.47;;;4.50;;
13238;SDS011;6686;51.292;4.166;2022-07-31T06:20:10;8.40;;;5.43;;
13238;SDS011;6686;51.292;4.166;2022-07-31T06:22:56;8.43;;;5.63;;
13238;SDS011;6686;51.292;4.166;2022-07-31T06:25:42;9.00;;;5.67;;
13238;SDS011;6686;51.292;4.166;2022-07-31T06:28:28;8.18;;;6.18;;
13238;SDS011;6686;51.292;4.166;2022-07-31T06:31:15;8.07;;;5.60;;
13238;SDS011;6686;51.292;4.166;2022-07-31T06:34:00;7.20;;;5.20;;
13238;SDS011;6686;51.292;4.166;2022-07-31T06:36:47;7.43;;;5.30;;
13238;SDS011;6686;51.292;4.166;2022-07-31T06:39:33;9.50;;;6.03;;
13238;SDS011;6686;51.292;4.166;2022-07-31T06:42:19;8.25;;;6.20;;
13238;SDS011;6686;51.292;4.166;2022-07-31T06:45:05;8.43;;;6.03;;
13238;SDS011;6686;51.292;4.166;2022-07-31T06:47:51;7.80;;;5.50;;
13238;SDS011;6686;51.292;4.166;2022-07-31T06:50:37;9.37;;;6.10;;
13238;SDS011;6686;51.292;4.166;2022-07-31T06:53:24;8.23;;;5.57;;
13238;SDS011;6686;51.292;4.166;2022-07-31T06:56:10;6.53;;;5.70;;
13238;SDS011;6686;51.292;4.166;2022-07-31T06:58:59;8.40;;;5.73;;
13238;SDS011;6686;51.292;4.166;2022-07-31T07:01:45;7.93;;;6.30;;
13238;SDS011;6686;51.292;4.166;2022-07-31T07:04:31;6.73;;;6.00;;
13238;SDS011;6686;51.292;4.166;2022-07-31T07:07:17;7.50;;;5.77;;
13238;SDS011;6686;51.292;4.166;2022-07-31T07:10:04;7.87;;;5.83;;
13238;SDS011;6686;51.292;4.166;2022-07-31T07:12:49;9.23;;;6.00;;
13238;SDS011;6686;51.292;4.166;2022-07-31T07:15:35;9.73;;;5.53;;
13238;SDS011;6686;51.292;4.166;2022-07-31T07:18:21;8.67;;;5.73;;
13238;SDS011;6686;51.292;4.166;2022-07-31T07:21:07;8.15;;;6.65;;
13238;SDS011;6686;51.292;4.166;2022-07-31T07:23:53;6.90;;;5.40;;
13238;SDS011;6686;51.292;4.166;2022-07-31T07:26:40;9.13;;;5.77;;
13238;SDS011;6686;51.292;4.166;2022-07-31T07:29:27;9.30;;;5.73;;
13238;SDS011;6686;51.292;4.166;2022-07-31T07:32:12;10.20;;;5.80;;
13238;SDS011;6686;51.292;4.166;2022-07-31T07:34:58;7.70;;;5.80;;
13238;SDS011;6686;51.292;4.166;2022-07-31T07:37:44;8.90;;;7.13;;
13238;SDS011;6686;51.292;4.166;2022-07-31T07:40:30;9.30;;;6.90;;
13238;SDS011;6686;51.292;4.166;2022-07-31T07:43:16;12.77;;;6.80;;
13238;SDS011;6686;51.292;4.166;2022-07-31T07:46:02;10.03;;;6.47;;
13238;SDS011;6686;51.292;4.166;2022-07-31T07:48:48;8.13;;;6.50;;
13238;SDS011;6686;51.292;4.166;2022-07-31T07:51:34;9.10;;;6.77;;
13238;SDS011;6686;51.292;4.166;2022-07-31T07:54:20;6.90;;;6.20;;
13238;SDS011;6686;51.292;4.166;2022-07-31T07:57:06;10.00;;;6.80;;
13238;SDS011;6686;51.292;4.166;2022-07-31T07:59:52;8.83;;;6.20;;
13238;SDS011;6686;51.292;4.166;2022-07-31T08:02:39;11.03;;;6.50;;
13238;SDS011;6686;51.292;4.166;2022-07-31T08:05:24;7.70;;;6.40;;
13238;SDS011;6686;51.292;4.166;2022-07-31T08:08:11;8.43;;;5.50;;
13238;SDS011;6686;51.292;4.166;2022-07-31T08:10:57;7.53;;;5.40;;
13238;SDS011;6686;51.292;4.166;2022-07-31T08:13:44;7.93;;;5.53;;
13238;SDS011;6686;51.292;4.166;2022-07-31T08:16:32;11.60;;;6.20;;
13238;SDS011;6686;51.292;4.166;2022-07-31T08:19:18;7.30;;;5.73;;
13238;SDS011;6686;51.292;4.166;2022-07-31T08:22:04;6.90;;;5.57;;
13238;SDS011;6686;51.292;4.166;2022-07-31T08:24:50;7.70;;;6.37;;
13238;SDS011;6686;51.292;4.166;2022-07-31T08:27:36;7.30;;;5.20;;
13238;SDS011;6686;51.292;4.166;2022-07-31T08:30:22;8.47;;;6.03;;
13238;SDS011;6686;51.292;4.166;2022-07-31T08:33:08;8.83;;;5.70;;
13238;SDS011;6686;51.292;4.166;2022-07-31T08:35:54;6.40;;;5.30;;
13238;SDS011;6686;51.292;4.166;2022-07-31T08:38:40;6.83;;;5.40;;
13238;SDS011;6686;51.292;4.166;2022-07-31T08:41:26;9.37;;;5.27;;
13238;SDS011;6686;51.292;4.166;2022-07-31T08:44:12;7.87;;;5.20;;
13238;SDS011;6686;51.292;4.166;2022-07-31T08:46:58;8.18;;;6.22;;
13238;SDS011;6686;51.292;4.166;2022-07-31T08:49:45;8.20;;;5.57;;
13238;SDS011;6686;51.292;4.166;2022-07-31T08:52:30;7.73;;;5.23;;
13238;SDS011;6686;51.292;4.166;2022-07-31T08:55:16;7.35;;;5.12;;
13238;SDS011;6686;51.292;4.166;2022-07-31T08:58:03;9.23;;;5.30;;
13238;SDS011;6686;51.292;4.166;2022-07-31T09:00:49;5.80;;;4.57;;
13238;SDS011;6686;51.292;4.166;2022-07-31T09:03:35;6.47;;;5.23;;
13238;SDS011;6686;51.292;4.166;2022-07-31T09:06:21;7.40;;;4.93;;
13238;SDS011;6686;51.292;4.166;2022-07-31T09:09:07;6.60;;;5.47;;
13238;SDS011;6686;51.292;4.166;2022-07-31T09:11:53;6.23;;;5.50;;
13238;SDS011;6686;51.292;4.166;2022-07-31T09:14:46;6.50;;;4.67;;
13238;SDS011;6686;51.292;4.166;2022-07-31T09:17:34;8.90;;;6.87;;
13238;SDS011;6686;51.292;4.166;2022-07-31T09:20:20;7.90;;;7.10;;
13238;SDS011;6686;51.292;4.166;2022-07-31T09:23:06;8.90;;;6.17;;
13238;SDS011;6686;51.292;4.166;2022-07-31T09:29:00;11.90;;;6.60;;
13238;SDS011;6686;51.292;4.166;2022-07-31T09:31:45;15.93;;;6.70;;
13238;SDS011;6686;51.292;4.166;2022-07-31T09:34:31;8.50;;;5.67;;
13238;SDS011;6686;51.292;4.166;2022-07-31T09:37:17;7.17;;;6.00;;
13238;SDS011;6686;51.292;4.166;2022-07-31T09:40:02;8.20;;;5.50;;
13238;SDS011;6686;51.292;4.166;2022-07-31T09:42:48;11.23;;;6.43;;
13238;SDS011;6686;51.292;4.166;2022-07-31T09:45:34;6.73;;;5.67;;
13238;SDS011;6686;51.292;4.166;2022-07-31T09:48:20;6.50;;;5.90;;
13238;SDS011;6686;51.292;4.166;2022-07-31T09:51:07;7.37;;;5.80;;
13238;SDS011;6686;51.292;4.166;2022-07-31T09:53:52;10.03;;;6.90;;
13238;SDS011;6686;51.292;4.166;2022-07-31T09:56:38;8.27;;;5.87;;
13238;SDS011;6686;51.292;4.166;2022-07-31T09:59:24;8.60;;;6.67;;
13238;SDS011;6686;51.292;4.166;2022-07-31T10:02:11;8.90;;;5.73;;
13238;SDS011;6686;51.292;4.166;2022-07-31T10:04:56;7.67;;;5.67;;
13238;SDS011;6686;51.292;4.166;2022-07-31T10:07:42;9.20;;;5.77;;
13238;SDS011;6686;51.292;4.166;2022-07-31T10:10:28;7.80;;;6.00;;
13238;SDS011;6686;51.292;4.166;2022-07-31T10:13:14;8.15;;;5.87;;
13238;SDS011;6686;51.292;4.166;2022-07-31T10:16:00;9.20;;;5.40;;
13238;SDS011;6686;51.292;4.166;2022-07-31T10:18:46;7.67;;;5.90;;
13238;SDS011;6686;51.292;4.166;2022-07-31T10:21:36;7.67;;;6.10;;
13238;SDS011;6686;51.292;4.166;2022-07-31T10:24:21;11.30;;;6.57;;
13238;SDS011;6686;51.292;4.166;2022-07-31T10:27:07;6.27;;;5.53;;
13238;SDS011;6686;51.292;4.166;2022-07-31T10:29:53;5.83;;;4.77;;
13238;SDS011;6686;51.292;4.166;2022-07-31T10:32:39;8.37;;;5.00;;
13238;SDS011;6686;51.292;4.166;2022-07-31T10:35:25;6.10;;;4.70;;
13238;SDS011;6686;51.292;4.166;2022-07-31T10:41:14;11.53;;;9.63;;
13238;SDS011;6686;51.292;4.166;2022-07-31T10:44:12;8.07;;;4.73;;
13238;SDS011;6686;51.292;4.166;2022-07-31T10:46:52;11.47;;;6.83;;
13238;SDS011;6686;51.292;4.166;2022-07-31T10:49:39;9.07;;;6.57;;
13238;SDS011;6686;51.292;4.166;2022-07-31T10:52:28;6.17;;;5.17;;
13238;SDS011;6686;51.292;4.166;2022-07-31T10:55:17;6.80;;;4.40;;
13238;SDS011;6686;51.292;4.166;2022-07-31T10:58:06;9.97;;;4.37;;
13238;SDS011;6686;51.292;4.166;2022-07-31T11:00:52;8.50;;;4.40;;
13238;SDS011;6686;51.292;4.166;2022-07-31T11:03:41;8.07;;;4.53;;
13238;SDS011;6686;51.292;4.166;2022-07-31T11:06:36;5.87;;;4.30;;
13238;SDS011;6686;51.292;4.166;2022-07-31T11:09:20;9.27;;;4.27;;
13238;SDS011;6686;51.292;4.166;2022-07-31T11:11:59;6.67;;;3.63;;
13238;SDS011;6686;51.292;4.166;2022-07-31T11:14:45;6.33;;;3.67;;
13238;SDS011;6686;51.292;4.166;2022-07-31T11:17:34;9.33;;;4.10;;
13238;SDS011;6686;51.292;4.166;2022-07-31T11:20:26;4.30;;;3.70;;
13238;SDS011;6686;51.292;4.166;2022-07-31T11:23:11;5.73;;;4.00;;
13238;SDS011;6686;51.292;4.166;2022-07-31T11:25:58;6.10;;;5.50;;
13238;SDS011;6686;51.292;4.166;2022-07-31T11:28:43;7.33;;;6.37;;
13238;SDS011;6686;51.292;4.166;2022-07-31T11:31:29;6.07;;;5.47;;
13238;SDS011;6686;51.292;4.166;2022-07-31T11:34:15;5.53;;;5.03;;
13238;SDS011;6686;51.292;4.166;2022-07-31T11:37:02;6.90;;;4.00;;
13238;SDS011;6686;51.292;4.166;2022-07-31T11:39:51;5.00;;;3.97;;
13238;SDS011;6686;51.292;4.166;2022-07-31T11:42:40;7.67;;;5.50;;
13238;SDS011;6686;51.292;4.166;2022-07-31T11:45:23;8.77;;;6.47;;
13238;SDS011;6686;51.292;4.166;2022-07-31T11:48:12;5.50;;;4.87;;
13238;SDS011;6686;51.292;4.166;2022-07-31T11:50:54;5.57;;;4.23;;
13238;SDS011;6686;51.292;4.166;2022-07-31T11:53:41;7.68;;;4.47;;
13238;SDS011;6686;51.292;4.166;2022-07-31T11:56:28;3.67;;;3.30;;
13238;SDS011;6686;51.292;4.166;2022-07-31T11:59:17;4.33;;;3.63;;
13238;SDS011;6686;51.292;4.166;2022-07-31T12:04:52;5.47;;;4.20;;
13238;SDS011;6686;51.292;4.166;2022-07-31T12:07:41;5.50;;;3.43;;
13238;SDS011;6686;51.292;4.166;2022-07-31T12:10:24;4.93;;;4.03;;
13238;SDS011;6686;51.292;4.166;2022-07-31T12:13:11;4.03;;;3.63;;
13238;SDS011;6686;51.292;4.166;2022-07-31T12:15:57;6.45;;;3.62;;
13238;SDS011;6686;51.292;4.166;2022-07-31T12:21:53;4.73;;;3.03;;
13238;SDS011;6686;51.292;4.166;2022-07-31T12:28:06;4.73;;;3.80;;
13238;SDS011;6686;51.292;4.166;2022-07-31T12:30:57;4.53;;;2.70;;
13238;SDS011;6686;51.292;4.166;2022-07-31T12:33:48;4.60;;;2.87;;
13238;SDS011;6686;51.292;4.166;2022-07-31T12:36:31;4.37;;;2.87;;
13238;SDS011;6686;51.292;4.166;2022-07-31T12:39:18;3.20;;;2.90;;
13238;SDS011;6686;51.292;4.166;2022-07-31T12:42:04;5.87;;;3.00;;
13238;SDS011;6686;51.292;4.166;2022-07-31T12:44:50;3.07;;;2.77;;
13238;SDS011;6686;51.292;4.166;2022-07-31T12:47:35;3.90;;;2.70;;
13238;SDS011;6686;51.292;4.166;2022-07-31T12:50:22;5.85;;;2.53;;
13238;SDS011;6686;51.292;4.166;2022-07-31T12:53:08;5.22;;;2.28;;
13238;SDS011;6686;51.292;4.166;2022-07-31T12:55:53;3.45;;;2.42;;
13238;SDS011;6686;51.292;4.166;2022-07-31T12:58:39;6.50;;;2.87;;
13238;SDS011;6686;51.292;4.166;2022-07-31T13:01:25;3.58;;;2.90;;
13238;SDS011;6686;51.292;4.166;2022-07-31T13:04:11;7.83;;;3.10;;
13238;SDS011;6686;51.292;4.166;2022-07-31T13:06:57;4.37;;;3.10;;
13238;SDS011;6686;51.292;4.166;2022-07-31T13:09:43;6.12;;;2.80;;
13238;SDS011;6686;51.292;4.166;2022-07-31T13:12:28;4.57;;;2.50;;
13238;SDS011;6686;51.292;4.166;2022-07-31T13:15:15;10.30;;;3.33;;
13238;SDS011;6686;51.292;4.166;2022-07-31T13:18:00;4.40;;;2.73;;
13238;SDS011;6686;51.292;4.166;2022-07-31T13:20:46;4.73;;;2.47;;
13238;SDS011;6686;51.292;4.166;2022-07-31T13:23:32;3.50;;;2.00;;
13238;SDS011;6686;51.292;4.166;2022-07-31T13:26:25;6.55;;;2.20;;
13238;SDS011;6686;51.292;4.166;2022-07-31T13:29:09;6.80;;;1.98;;
13238;SDS011;6686;51.292;4.166;2022-07-31T13:32:02;8.82;;;2.30;;
13238;SDS011;6686;51.292;4.166;2022-07-31T13:34:44;6.40;;;2.40;;
13238;SDS011;6686;51.292;4.166;2022-07-31T13:37:30;3.97;;;2.70;;
13238;SDS011;6686;51.292;4.166;2022-07-31T13:40:16;4.47;;;2.20;;
13238;SDS011;6686;51.292;4.166;2022-07-31T13:43:02;3.53;;;2.40;;
13238;SDS011;6686;51.292;4.166;2022-07-31T13:45:47;2.37;;;1.80;;
13238;SDS011;6686;51.292;4.166;2022-07-31T13:48:33;4.20;;;2.00;;
13238;SDS011;6686;51.292;4.166;2022-07-31T13:51:19;4.87;;;2.07;;
13238;SDS011;6686;51.292;4.166;2022-07-31T13:54:05;3.83;;;2.20;;
13238;SDS011;6686;51.292;4.166;2022-07-31T13:56:51;5.93;;;2.23;;
13238;SDS011;6686;51.292;4.166;2022-07-31T13:59:37;7.07;;;2.80;;
13238;SDS011;6686;51.292;4.166;2022-07-31T14:02:23;6.93;;;2.70;;
13238;SDS011;6686;51.292;4.166;2022-07-31T14:05:10;4.07;;;2.20;;
13238;SDS011;6686;51.292;4.166;2022-07-31T14:07:55;3.87;;;2.20;;
13238;SDS011;6686;51.292;4.166;2022-07-31T14:10:42;4.83;;;2.37;;
13238;SDS011;6686;51.292;4.166;2022-07-31T14:13:28;3.30;;;2.28;;
13238;SDS011;6686;51.292;4.166;2022-07-31T14:16:14;7.80;;;2.60;;
13238;SDS011;6686;51.292;4.166;2022-07-31T14:19:00;8.07;;;2.83;;
13238;SDS011;6686;51.292;4.166;2022-07-31T14:21:46;3.37;;;2.10;;
13238;SDS011;6686;51.292;4.166;2022-07-31T14:24:32;8.32;;;2.15;;
13238;SDS011;6686;51.292;4.166;2022-07-31T14:27:18;5.97;;;2.75;;
13238;SDS011;6686;51.292;4.166;2022-07-31T14:30:07;6.15;;;2.65;;
13238;SDS011;6686;51.292;4.166;2022-07-31T14:32:50;3.90;;;2.55;;
13238;SDS011;6686;51.292;4.166;2022-07-31T14:35:35;4.57;;;2.70;;
13238;SDS011;6686;51.292;4.166;2022-07-31T14:38:22;4.85;;;2.08;;
13238;SDS011;6686;51.292;4.166;2022-07-31T14:41:08;5.47;;;2.47;;
13238;SDS011;6686;51.292;4.166;2022-07-31T14:43:54;5.80;;;2.20;;
13238;SDS011;6686;51.292;4.166;2022-07-31T14:46:43;7.60;;;3.23;;
13238;SDS011;6686;51.292;4.166;2022-07-31T14:49:30;2.43;;;2.03;;
13238;SDS011;6686;51.292;4.166;2022-07-31T14:52:15;3.07;;;1.90;;
13238;SDS011;6686;51.292;4.166;2022-07-31T14:55:01;3.87;;;2.70;;
13238;SDS011;6686;51.292;4.166;2022-07-31T14:57:46;4.13;;;1.90;;
13238;SDS011;6686;51.292;4.166;2022-07-31T15:00:33;4.53;;;2.30;;
13238;SDS011;6686;51.292;4.166;2022-07-31T15:03:20;4.97;;;2.40;;
13238;SDS011;6686;51.292;4.166;2022-07-31T15:06:05;4.68;;;2.00;;
13238;SDS011;6686;51.292;4.166;2022-07-31T15:08:51;4.30;;;2.20;;
13238;SDS011;6686;51.292;4.166;2022-07-31T15:11:38;4.70;;;2.20;;
13238;SDS011;6686;51.292;4.166;2022-07-31T15:14:24;4.23;;;2.43;;
13238;SDS011;6686;51.292;4.166;2022-07-31T15:17:10;2.92;;;1.90;;
13238;SDS011;6686;51.292;4.166;2022-07-31T15:19:56;3.97;;;1.95;;
13238;SDS011;6686;51.292;4.166;2022-07-31T15:22:42;6.47;;;2.05;;
13238;SDS011;6686;51.292;4.166;2022-07-31T15:25:28;7.28;;;2.08;;
13238;SDS011;6686;51.292;4.166;2022-07-31T15:28:14;5.03;;;2.12;;
13238;SDS011;6686;51.292;4.166;2022-07-31T15:31:00;2.50;;;1.80;;
13238;SDS011;6686;51.292;4.166;2022-07-31T15:33:46;3.50;;;1.87;;
13238;SDS011;6686;51.292;4.166;2022-07-31T15:36:31;5.37;;;2.03;;
13238;SDS011;6686;51.292;4.166;2022-07-31T15:39:17;3.73;;;1.60;;
13238;SDS011;6686;51.292;4.166;2022-07-31T15:42:03;2.30;;;2.07;;
13238;SDS011;6686;51.292;4.166;2022-07-31T15:44:49;4.77;;;2.20;;
13238;SDS011;6686;51.292;4.166;2022-07-31T15:47:35;4.53;;;2.10;;
13238;SDS011;6686;51.292;4.166;2022-07-31T15:50:22;3.83;;;2.17;;
13238;SDS011;6686;51.292;4.166;2022-07-31T15:53:08;4.53;;;1.73;;
13238;SDS011;6686;51.292;4.166;2022-07-31T15:55:54;5.97;;;2.10;;
13238;SDS011;6686;51.292;4.166;2022-07-31T15:58:40;4.83;;;2.30;;
13238;SDS011;6686;51.292;4.166;2022-07-31T16:01:27;4.00;;;2.20;;
13238;SDS011;6686;51.292;4.166;2022-07-31T16:04:13;3.93;;;1.97;;
13238;SDS011;6686;51.292;4.166;2022-07-31T16:06:59;3.50;;;1.90;;
13238;SDS011;6686;51.292;4.166;2022-07-31T16:09:44;6.28;;;2.50;;
13238;SDS011;6686;51.292;4.166;2022-07-31T16:12:31;4.00;;;2.00;;
13238;SDS011;6686;51.292;4.166;2022-07-31T16:15:17;3.87;;;2.40;;
13238;SDS011;6686;51.292;4.166;2022-07-31T16:18:03;4.23;;;2.10;;
13238;SDS011;6686;51.292;4.166;2022-07-31T16:20:49;5.87;;;1.90;;
13238;SDS011;6686;51.292;4.166;2022-07-31T16:23:35;5.43;;;2.23;;
13238;SDS011;6686;51.292;4.166;2022-07-31T16:26:21;7.30;;;2.80;;
13238;SDS011;6686;51.292;4.166;2022-07-31T16:29:07;4.50;;;2.50;;
13238;SDS011;6686;51.292;4.166;2022-07-31T16:31:54;4.73;;;2.50;;
13238;SDS011;6686;51.292;4.166;2022-07-31T16:34:40;6.07;;;2.40;;
13238;SDS011;6686;51.292;4.166;2022-07-31T16:37:26;4.73;;;2.23;;
13238;SDS011;6686;51.292;4.166;2022-07-31T16:40:12;7.20;;;2.37;;
13238;SDS011;6686;51.292;4.166;2022-07-31T16:43:01;4.53;;;2.33;;
13238;SDS011;6686;51.292;4.166;2022-07-31T16:45:47;4.17;;;2.50;;
13238;SDS011;6686;51.292;4.166;2022-07-31T16:48:33;4.63;;;2.60;;
13238;SDS011;6686;51.292;4.166;2022-07-31T16:51:18;4.87;;;2.80;;
13238;SDS011;6686;51.292;4.166;2022-07-31T16:54:04;3.20;;;2.30;;
13238;SDS011;6686;51.292;4.166;2022-07-31T16:56:50;6.13;;;2.63;;
13238;SDS011;6686;51.292;4.166;2022-07-31T16:59:36;3.57;;;2.30;;
13238;SDS011;6686;51.292;4.166;2022-07-31T17:02:22;3.00;;;2.30;;
13238;SDS011;6686;51.292;4.166;2022-07-31T17:05:08;3.80;;;2.50;;
13238;SDS011;6686;51.292;4.166;2022-07-31T17:07:54;4.33;;;2.40;;
13238;SDS011;6686;51.292;4.166;2022-07-31T17:10:40;5.00;;;2.60;;
13238;SDS011;6686;51.292;4.166;2022-07-31T17:13:26;6.63;;;2.60;;
13238;SDS011;6686;51.292;4.166;2022-07-31T17:16:12;5.70;;;2.70;;
13238;SDS011;6686;51.292;4.166;2022-07-31T17:18:58;5.40;;;2.80;;